Airport Information

KSFF - Felts Fld Airport

KSFF 160753Z AUTO 00000KT 10SM BKN070 M02/M06 A2997 RMK AO2 SLP167 T10221061 400001083


  • General Information

  • Coordinates: N 47°40'58"/ W 117°19'21"
  • Location: N/A
  • Surveyed Elevation: 1953 MSL

Operations

Flow Name Active Runways Conditions

Green background denotes normal operations.


Common Frequencies

Callsign Frequency Position Name
SFF_GND 121.700 Felts Ground
SFF_TWR 132.500 Felts Tower
KSFF_ATIS 120.550 Felts Field ATIS

More at the Document Center


Charts

Name Description Cycle
FELTS FOUR Page 1 1901
HAYDEN FOUR Page 1 1901
Name Description Cycle
HILIE TWO Page 1 1901
ZOOMR ONE Page 1 1901